Delta Ios — SVAK9 — position and weather

sailwx.info

Track history (hours):
 
Tides and Currents Weather Stations Pressure Air Temp Water Temp Dewpoint Dewpoint Depression Visibility Wind Speed Wind Dir Waves Ship Positions

Delta Ios

Last reported at 2016-Sep-28 12:33 UTC. Time now 2016-Sep-28 18:49 UTC.
Position N 40°51' E 028°53'.

Length 276 m; draft 9 m.

Type: Tanker. MMSI: 240821000.

Date/timePositionNaut miles runAvg speedWind from/ knotsBaromVisibWave heightAir tempDewpointWater temp
2016-Sep-28 12:33N 40°51' E 028°53'2 0.6
2016-Sep-28 08:33N 40°51' E 028°56'1 0.2
2016-Sep-28 03:33N 40°50' E 028°54'2 1.8
2016-Sep-28 02:33N 40°50' E 028°52'8 7.8
2016-Sep-28 01:33N 40°49' E 028°42'159 3.8
2016-Sep-26 08:14N 39°52' E 025°28'129 8.8
2016-Sep-25 17:34N 37°44' E 025°40'1514.5
2016-Sep-25 16:32N 37°30' E 025°46'  
2016-Sep-19 06:18N 32°03' E 033°59'3312.2
2016-Sep-19 03:33N 32°13' E 033°21'1312.7
2016-Sep-19 02:33N 32°17' E 033°07'2512.3
2016-Sep-19 00:33N 32°23' E 032°39'5911.8
2016-Sep-18 19:33N 32°38' E 031°31'4912.2
2016-Sep-18 15:33N 32°50' E 030°35'1212.3
2016-Sep-18 14:32N 32°54' E 030°21'  
Track history (hours):
 
Tides and Currents Weather Stations Pressure Air Temp Water Temp Dewpoint Dewpoint Depression Visibility Wind Speed Wind Dir Waves Ship Positions

Delta Ios

Last reported at 2016-Sep-28 12:33 UTC. Time now 2016-Sep-28 18:49 UTC.
Position N 40°51' E 028°53'.

Length 276 m; draft 9 m.

Type: Tanker. MMSI: 240821000.

Date/timePositionNaut miles runAvg speedWind from/ knotsBaromVisibWave heightAir tempDewpointWater temp
2016-Sep-28 12:33N 40°51' E 028°53'2 0.6
2016-Sep-28 08:33N 40°51' E 028°56'1 0.2
2016-Sep-28 03:33N 40°50' E 028°54'2 1.8
2016-Sep-28 02:33N 40°50' E 028°52'8 7.8
2016-Sep-28 01:33N 40°49' E 028°42'159 3.8
2016-Sep-26 08:14N 39°52' E 025°28'129 8.8
2016-Sep-25 17:34N 37°44' E 025°40'1514.5
2016-Sep-25 16:32N 37°30' E 025°46'  
2016-Sep-19 06:18N 32°03' E 033°59'3312.2
2016-Sep-19 03:33N 32°13' E 033°21'1312.7
2016-Sep-19 02:33N 32°17' E 033°07'2512.3
2016-Sep-19 00:33N 32°23' E 032°39'5911.8
2016-Sep-18 19:33N 32°38' E 031°31'4912.2
2016-Sep-18 15:33N 32°50' E 030°35'1212.3
2016-Sep-18 14:32N 32°54' E 030°21'  

Dump ship's entire track history